x

Ilm3 - 27 Miles Se Of Wrightsville Beach, Nc (41037) Weather Station

2:00am - Mon 24th Nov 2014 All times are EST. -5 hours from GMT.

  • Wind
    18mph, 20mph gusts
  • Sea Temp 66°f
  • Air Temp 65°f
  • Sea Pressure 1011.9mb
  • Ilm3 - 27 Miles Se Of Wrightsville Beach, Nc
  • Ilm3 - 27 Miles Se Of Wrightsville Beach, Nc

More Historic Weather Station data

Upgrade to MSW Pro to gain access to the past 30 days of data for over 8000 Wavebouys and Weather Stations around the globe.

Join Pro

Comparision Forecast

View Surf forecast
   
Mon 11/24 2:00am 18 20 mph 1011.9mb 66f 65f
1:00am 11 13 mph 1010.1mb 66f 67f
12:00am 27 31 mph 1012mb 67f 65f
Sun 11/23 11:00pm 29 36 mph 1010.9mb 66f 67f
10:00pm 25 31 mph 1012.9mb 67f 67f
9:00pm 34 38 mph 1013.4mb 67f 68f
8:00pm 27 34 mph 1013.4mb 67f 67f
7:00pm 29 36 mph 1014.6mb 68f 67f
6:00pm 36 45 mph 1013.5mb 68f 67f
5:00pm 29 34 mph 1015mb 68f 66f
4:00pm 31 40 mph 1015.8mb 67f 65f
3:00pm 31 38 mph 1016.7mb 67f 65f
2:00pm 29 34 mph 1017.6mb 68f 65f
1:00pm 29 34 mph 1019.4mb 68f 64f
12:00pm 25 27 mph 1020.6mb 68f 65f
11:00am 20 25 mph 1022.6mb 68f 64f
10:00am 18 22 mph 1024.3mb 69f 63f
9:00am 16 20 mph 1024.5mb 69f 65f
8:00am 7 9 mph 1024.3mb 69f 65f
7:00am 9 11 mph 1024.6mb 69f 64f
6:00am 9
mph
1025mb 69f 64f
5:00am 9 11 mph 1024.9mb 68f 65f
4:00am 9 11 mph 1024.9mb 68f 65f
3:00am 11 13 mph 1025.1mb 68f 65f
2:00am 11 13 mph 1025.6mb 68f 64f
1:00am 11 13 mph 1025.9mb 68f 64f
12:00am 13 16 mph 1026.8mb 68f 64f
Sat 11/22 11:00pm 13 16 mph 1026.9mb 68f 64f
10:00pm 13 16 mph 1027.6mb 68f 64f
9:00pm 11 13 mph 1028mb 69f 62f
8:00pm 9 11 mph 1028.1mb 69f 60f
7:00pm 16 18 mph 1028.4mb 69f 58f
6:00pm 13 16 mph 1029.2mb 69f 57f
5:00pm 13 16 mph 1029.6mb 69f 56f
4:00pm 16 18 mph 1029.8mb 69f 55f
3:00pm 16 18 mph 1030.3mb 68f 54f
2:00pm 13 18 mph 1031mb 68f 53f
1:00pm 16 18 mph 1031.7mb 68f 53f
12:00pm 13 16 mph 1032.7mb 68f 53f
11:00am 16 20 mph 1034mb 68f 52f
10:00am 11 13 mph 1034.3mb 68f 51f
9:00am 11 16 mph 1034.3mb 68f 51f
8:00am 13 18 mph 1034mb 68f 50f
7:00am 16 22 mph 1033.5mb 68f 50f
6:00am 16 20 mph 1032.9mb 68f 49f
5:00am 13 16 mph 1033mb 68f 48f
4:00am 16 20 mph 1033.1mb 68f 48f
3:00am 13 20 mph 1033.1mb 68f 48f
2:00am 16 18 mph 1033.4mb 68f 47f
1:00am 18 20 mph 1033.8mb 68f 47f
12:00am 16 20 mph 1033.6mb 68f 46f
Fri 11/21 11:00pm 16 18 mph 1033.1mb 68f 46f
10:00pm 16 20 mph 1033.1mb 68f 48f
9:00pm 16 18 mph 1032.6mb 69f 49f
8:00pm 16 20 mph 1032.5mb 69f 49f
7:00pm 13 16 mph 1032.3mb 69f 50f
6:00pm 16 18 mph 1031.6mb 69f 51f
5:00pm 16 20 mph 1030.7mb 69f 52f
4:00pm 16 20 mph 1030.5mb 69f 51f
3:00pm 13 16 mph 1029.9mb 69f 50f
2:00pm 16 18 mph 1029.3mb 69f 49f
1:00pm 13 18 mph 1029.1mb 69f 49f
12:00pm 18 20 mph 1030mb 68f 49f
11:00am 20 25 mph 1029.4mb 68f 49f
10:00am 22 29 mph 1028.6mb 69f 51f
9:00am 20 25 mph 1028mb 69f 51f
8:00am 18 25 mph 1026.9mb 69f 52f
7:00am 18 25 mph 1025.7mb 69f 53f
6:00am 20 25 mph 1024.8mb 69f 54f
5:00am 22 27 mph 1023.8mb 69f 55f
4:00am 25 27 mph 1023.2mb 69f 56f
3:00am 25 31 mph 1023.2mb 68f 57f
2:00am 27 31 mph 1022.3mb 68f 58f
1:00am 27 34 mph 1022.4mb 67f 58f
12:00am 27 31 mph 1021.9mb 67f 59f
Thu 11/20 11:00pm 27 31 mph 1022mb 67f 59f
10:00pm 27 34 mph 1022.4mb 67f 59f
9:00pm 25 34 mph 1021.1mb 67f 59f
8:00pm 20 27 mph 1021mb 67f 58f
7:00pm 27 34 mph 1020mb 67f 58f
6:00pm 27 34 mph 1019.6mb 67f 57f
5:00pm 25 29 mph 1019.1mb 67f 57f
4:00pm 22 29 mph 1019mb 67f 57f
3:00pm 22 25 mph 1019.3mb 67f 56f
2:00pm 25 31 mph 1019.3mb 67f 55f
1:00pm 20 27 mph 1020.2mb 67f 55f
12:00pm 20 25 mph 1021.9mb 67f 53f
11:00am 22 27 mph 1023.8mb 67f 52f
10:00am 20 25 mph 1024.7mb 67f 51f
9:00am 22 27 mph 1024.4mb 67f 50f